首页
METAR-TAF:

METAR-TAF

机场 :

St. Petersburg-Clearwater International Airport

聖彼德斯堡-克利爾沃特, 佛罗里达州, 美国

纬度: 27-54-44N, 经度: 082-41-08W, 海拔: 3米

当前天气观测

该预报发布于1小时和18分钟前的14:53 UTC
风速4节,风向东转东南
温度 32°C
湿度 71%
气压 1019 hPa
能見度: 16.1公里
少量云层高于2200英尺

METAR: KPIE 211453Z 12004KT 10SM FEW022 32/26 A3008 RMK AO2 SLP187 T03170256 50002

时间: 12:11 (16:11 UTC)

预报

该预报发布于4小时和48分钟前的11:23 UTC
预报有效从21日的 12点(UTC)到 22日的 12点(UTC)
风速5节,风向东转东南
能見度: 10公里
散云层高于3000英尺
多云层高于25000英尺
从 21日的 1900点(UTC)
风速7节,风向西转西北
能見度: 10公里
散云层高于3500英尺, 积雨云.
多云层高于25000英尺
附近有雷暴
从 21日的 2300点(UTC)
风速5节,风向北转西北
能見度: 10公里
散云层高于3000英尺
多云层高于10000英尺
附近有阵雨
从 22日的 0200点(UTC)
风速3节,风向东北
能見度: 10公里
散云层高于3000英尺
多云层高于25000英尺

TAF: KPIE 211123Z 2112/2212 12005KT P6SM SCT030 BKN250 FM211900 30007KT P6SM VCTS SCT035CB BKN250 FM212300 33005KT P6SM VCSH SCT030 BKN100 FM220200 05003KT P6SM SCT030 BKN250

超过4000个机场的气象观测和天气预报(METAR&TAF报告)。

可查询的气象台以黄色和红色小点在地图上表示。

将鼠标移到小点上方,可查看气象台名称。

然后点击查看天气观测和预报。

如需切换地图:点击带黑十字的绿色按钮放大地图;点击带横线的绿色按钮缩小地图;或者点击绿色箭头查看邻近地区的地图。


METAR-TAF: